Time;durP1;ratioP1;P1;durP2;ratioP2;P2;SDS_P1;SDS_P2;PMS_P1;PMS_P2;Temp;Humidity;BMP_temperature;BMP_pressure;BME280_temperature;BME280_humidity;BME280_pressure;Samples;Min_cycle;Max_cycle;Signal;HPM_P1;HPM_P2
2021/12/09 00:01:00;;;;;;;59.35;31.73;;;;;;;1.89;74.40;99445.44;5023896;28;20041;-76
2021/12/09 00:03:28;;;;;;;57.47;30.35;;;;;;;1.91;74.54;99435.91;5025211;28;20061;-76
2021/12/09 00:05:55;;;;;;;59.72;29.88;;;;;;;1.90;74.43;99433.28;5022514;28;20034;-77
2021/12/09 00:08:22;;;;;;;66.43;32.60;;;;;;;1.86;74.22;99431.50;5023894;28;20041;-76
2021/12/09 00:10:47;;;;;;;60.72;30.70;;;;;;;1.83;74.52;99431.47;5022523;28;20038;-76
2021/12/09 00:13:13;;;;;;;66.90;33.28;;;;;;;1.83;74.45;99439.25;5024299;28;20539;-77
2021/12/09 00:15:38;;;;;;;58.00;30.65;;;;;;;1.87;74.60;99435.84;5022980;28;20080;-76
2021/12/09 00:18:04;;;;;;;65.30;32.42;;;;;;;1.85;74.29;99429.75;5023435;28;20037;-76
2021/12/09 00:20:29;;;;;;;61.47;31.60;;;;;;;1.82;74.08;99433.19;5023536;28;20037;-76
2021/12/09 00:22:54;;;;;;;62.90;32.17;;;;;;;1.76;74.39;99430.53;5022553;28;20463;-76
2021/12/09 00:25:20;;;;;;;59.20;30.77;;;;;;;1.75;74.79;99437.44;5024342;28;20033;-77
2021/12/09 00:27:45;;;;;;;58.08;31.27;;;;;;;1.75;74.49;99427.03;5022010;28;20508;-76
2021/12/09 00:30:11;;;;;;;62.00;32.05;;;;;;;1.77;74.39;99434.00;5027242;28;20038;-76
2021/12/09 00:32:39;;;;;;;57.78;29.02;;;;;;;1.77;74.50;99450.47;5026468;28;20039;-76
2021/12/09 00:35:05;;;;;;;59.97;31.45;;;;;;;1.80;74.37;99457.44;5021116;28;20061;-76
2021/12/09 00:37:41;;;;;;;61.67;33.20;;;;;;;1.83;74.44;99460.06;5024459;28;20141;-76
2021/12/09 00:40:08;;;;;;;61.42;32.72;;;;;;;1.88;74.25;99453.19;5031560;28;20503;-76
2021/12/09 00:42:34;;;;;;;65.15;32.92;;;;;;;1.85;74.15;99466.19;5023444;28;20197;-76
2021/12/09 00:44:59;;;;;;;68.15;34.75;;;;;;;1.88;73.94;99469.69;5021072;28;20155;-76
2021/12/09 00:47:25;;;;;;;60.35;33.00;;;;;;;1.89;73.94;99473.19;5024584;28;20041;-77
2021/12/09 00:49:55;;;;;;;64.68;32.90;;;;;;;1.90;74.31;99469.72;5021746;28;20052;-76
2021/12/09 00:52:24;;;;;;;59.85;32.05;;;;;;;1.92;74.52;99468.00;5024689;28;20079;-76
2021/12/09 00:54:54;;;;;;;65.03;32.60;;;;;;;1.90;74.31;99465.38;5020903;28;20034;-76
2021/12/09 00:57:19;;;;;;;60.72;30.50;;;;;;;1.92;74.79;99463.66;5020794;28;20029;-76
2021/12/09 00:59:45;;;;;;;59.28;29.95;;;;;;;1.96;74.32;99459.34;5023992;28;20483;-76
2021/12/09 01:02:12;;;;;;;57.83;31.73;;;;;;;1.99;74.59;99469.78;5021501;28;20038;-76
2021/12/09 01:04:38;;;;;;;60.22;33.25;;;;;;;1.97;74.61;99463.72;5023213;28;20041;-76
2021/12/09 01:07:05;;;;;;;59.22;31.20;;;;;;;1.97;74.50;99474.13;5021522;28;20041;-75
2021/12/09 01:09:30;;;;;;;59.90;30.60;;;;;;;1.95;74.29;99478.44;5026257;28;20037;-76
2021/12/09 01:11:56;;;;;;;63.03;32.17;;;;;;;1.94;74.21;99480.19;5020991;28;20028;-76
2021/12/09 01:14:21;;;;;;;62.42;31.13;;;;;;;1.95;74.05;99491.44;5021217;28;20152;-75
2021/12/09 01:16:47;;;;;;;58.95;32.05;;;;;;;1.94;74.58;99487.13;5021654;28;20037;-76
2021/12/09 01:19:12;;;;;;;57.42;30.27;;;;;;;1.95;74.39;99491.44;5021560;28;20113;-76
2021/12/09 01:21:38;;;;;;;66.60;32.88;;;;;;;1.97;74.14;99488.00;5023524;28;20066;-76
2021/12/09 01:24:03;;;;;;;65.97;33.47;;;;;;;1.93;74.51;99499.22;5015965;28;20037;-76
2021/12/09 01:26:30;;;;;;;64.07;33.35;;;;;;;1.92;74.64;99481.88;5027914;28;20059;-76
2021/12/09 01:29:03;;;;;;;62.22;30.92;;;;;;;1.87;74.51;99480.09;5025292;28;20104;-77
2021/12/09 01:31:38;;;;;;;63.30;32.00;;;;;;;1.89;74.65;99486.19;5028273;28;20510;-77
2021/12/09 01:34:04;;;;;;;59.25;32.38;;;;;;;1.91;74.72;99495.75;5031142;28;20064;-77
2021/12/09 01:36:31;;;;;;;60.42;30.48;;;;;;;1.91;74.34;99484.44;5023182;28;20042;-77
2021/12/09 01:38:57;;;;;;;58.55;32.30;;;;;;;1.83;74.77;99497.38;5027823;28;20087;-77
2021/12/09 01:41:23;;;;;;;61.63;33.05;;;;;;;1.85;75.18;99500.00;5031423;28;20030;-77
2021/12/09 01:43:49;;;;;;;69.70;31.98;;;;;;;1.81;74.73;99498.19;5025327;28;20041;-77
2021/12/09 01:46:18;;;;;;;57.28;30.77;;;;;;;1.85;74.51;99487.00;5021455;28;20042;-76
2021/12/09 01:48:45;;;;;;;62.58;32.60;;;;;;;1.87;74.78;99513.91;5035860;28;20042;-76
2021/12/09 01:51:11;;;;;;;63.72;33.25;;;;;;;1.88;74.72;99511.31;5020035;28;20044;-76
2021/12/09 01:53:37;;;;;;;61.67;31.42;;;;;;;1.88;74.34;99489.63;5022323;28;20112;-76
2021/12/09 01:56:06;;;;;;;62.58;33.65;;;;;;;1.87;74.81;99498.31;5020461;28;20045;-76
2021/12/09 01:58:31;;;;;;;61.75;32.05;;;;;;;1.89;74.41;99513.06;5035008;28;20480;-76
2021/12/09 02:00:57;;;;;;;64.13;33.90;;;;;;;1.87;74.44;99500.91;5022795;28;20040;-76
2021/12/09 02:03:22;;;;;;;60.17;33.10;;;;;;;1.85;74.77;99498.28;5021143;28;20057;-76
2021/12/09 02:05:48;;;;;;;68.18;34.38;;;;;;;1.87;74.40;99509.56;5021427;28;20040;-76
2021/12/09 02:08:14;;;;;;;60.72;30.30;;;;;;;1.87;74.39;99506.97;5021778;28;20037;-76
2021/12/09 02:10:42;;;;;;;66.00;32.90;;;;;;;1.88;74.47;99493.09;5021556;28;20053;-76
2021/12/09 02:13:08;;;;;;;62.00;32.83;;;;;;;1.86;74.42;99489.63;5022495;28;20542;-76
2021/12/09 02:15:34;;;;;;;55.30;29.88;;;;;;;1.84;74.44;99493.06;5021492;28;20029;-76
2021/12/09 02:18:02;;;;;;;60.00;32.03;;;;;;;1.86;74.79;99491.31;5023339;28;20095;-76
2021/12/09 02:20:32;;;;;;;70.13;34.80;;;;;;;1.86;74.86;99496.53;5021522;28;20034;-76
2021/12/09 02:22:57;;;;;;;65.35;31.95;;;;;;;1.89;74.72;99488.78;5022885;28;20056;-76
2021/12/09 02:25:23;;;;;;;65.43;32.40;;;;;;;1.91;74.46;99487.94;5020820;28;20041;-76
2021/12/09 02:27:49;;;;;;;69.93;36.15;;;;;;;1.89;74.14;99496.59;5024440;28;20048;-76
2021/12/09 02:30:16;;;;;;;63.03;33.42;;;;;;;1.91;74.20;99495.75;5023192;28;20129;-77
2021/12/09 02:32:44;;;;;;;62.38;31.80;;;;;;;1.91;74.23;99484.44;5023268;28;20488;-77
2021/12/09 02:35:10;;;;;;;63.97;33.50;;;;;;;1.85;74.04;99481.78;5022771;28;20046;-76
2021/12/09 02:37:36;;;;;;;58.13;32.75;;;;;;;1.80;74.20;99481.72;5026762;28;20087;-77
2021/12/09 02:40:05;;;;;;;61.78;32.67;;;;;;;1.80;74.59;99473.06;5023641;28;20124;-77
2021/12/09 02:42:32;;;;;;;58.83;32.17;;;;;;;1.77;74.46;99478.22;5027235;28;20406;-77
2021/12/09 02:44:57;;;;;;;71.18;36.67;;;;;;;1.80;74.12;99493.88;5025866;28;20045;-77
2021/12/09 02:47:24;;;;;;;63.80;33.88;;;;;;;1.81;74.47;99491.28;5024043;28;20053;-77
2021/12/09 02:49:49;;;;;;;62.63;33.67;;;;;;;1.80;74.17;99484.31;5025378;28;20045;-77
2021/12/09 02:52:15;;;;;;;64.03;32.33;;;;;;;1.83;74.41;99488.69;5025664;28;20041;-77
2021/12/09 02:54:40;;;;;;;58.65;30.38;;;;;;;1.83;74.42;99488.69;5030166;28;20026;-77
2021/12/09 02:57:07;;;;;;;60.67;32.13;;;;;;;1.85;74.21;99481.78;5024845;28;20029;-77
2021/12/09 02:59:33;;;;;;;65.20;32.72;;;;;;;1.82;74.11;99479.16;5026856;28;20037;-76
2021/12/09 03:02:01;;;;;;;67.10;35.22;;;;;;;1.84;74.21;99480.06;5023926;28;20030;-77
2021/12/09 03:04:41;;;;;;;66.32;35.40;;;;;;;1.82;74.67;99473.94;5019096;28;20042;-77
2021/12/09 03:07:15;;;;;;;62.72;33.25;;;;;;;1.83;74.42;99470.47;5026174;28;20041;-77
2021/12/09 03:09:49;;;;;;;61.42;33.38;;;;;;;1.82;74.10;99472.22;5023668;28;20045;-77
2021/12/09 03:12:20;;;;;;;61.70;32.97;;;;;;;1.81;74.22;99464.38;5023099;28;20381;-77
2021/12/09 03:14:45;;;;;;;64.88;32.60;;;;;;;1.80;74.17;99465.25;5026249;28;20040;-77
2021/12/09 03:17:11;;;;;;;63.85;33.83;;;;;;;1.81;74.28;99465.28;5023202;28;20030;-77
2021/12/09 03:19:36;;;;;;;68.85;36.40;;;;;;;1.74;74.14;99464.31;5029826;28;20034;-77
2021/12/09 03:22:02;;;;;;;69.88;35.45;;;;;;;1.82;74.42;99466.16;5023680;28;20034;-77
2021/12/09 03:24:27;;;;;;;67.00;34.47;;;;;;;1.84;74.03;99462.72;5025890;28;20392;-77
2021/12/09 03:26:55;;;;;;;65.30;32.80;;;;;;;1.87;74.17;99467.94;5023861;28;20070;-77
2021/12/09 03:29:24;;;;;;;71.85;34.55;;;;;;;1.85;74.14;99468.78;5025451;28;20041;-77
2021/12/09 03:31:52;;;;;;;65.20;34.42;;;;;;;1.82;74.51;99476.56;5023726;28;20420;-77
2021/12/09 03:34:20;;;;;;;68.93;34.70;;;;;;;1.88;74.71;99474.00;5024706;28;20026;-77
2021/12/09 03:36:47;;;;;;;71.95;34.60;;;;;;;1.89;73.96;99471.44;5023072;28;20121;-77
2021/12/09 03:39:17;;;;;;;66.20;32.15;;;;;;;1.90;74.52;99480.97;5024153;28;20029;-77
2021/12/09 03:41:44;;;;;;;67.57;33.30;;;;;;;1.89;74.71;99487.06;5023129;28;20049;-77
2021/12/09 03:44:10;;;;;;;65.55;33.67;;;;;;;1.92;74.42;99494.91;5024654;28;20044;-77
2021/12/09 03:46:35;;;;;;;72.97;35.10;;;;;;;1.96;74.29;99491.50;5023539;28;20025;-77
2021/12/09 03:49:02;;;;;;;72.38;35.40;;;;;;;1.95;74.27;99494.06;5023949;28;20041;-77
2021/12/09 03:51:27;;;;;;;70.10;36.00;;;;;;;1.97;74.13;99495.81;5023997;28;20045;-77
2021/12/09 03:53:53;;;;;;;64.60;33.25;;;;;;;1.96;74.36;99491.50;5023006;28;20022;-77
2021/12/09 03:56:19;;;;;;;65.50;34.13;;;;;;;2.00;73.79;99505.41;5028417;28;21009;-77
2021/12/09 03:58:45;;;;;;;69.22;34.90;;;;;;;1.99;74.10;99506.22;5024676;28;20043;-76
2021/12/09 04:01:10;;;;;;;70.13;36.42;;;;;;;1.98;74.46;99505.38;5022186;28;20102;-77
2021/12/09 04:03:35;;;;;;;69.93;36.33;;;;;;;2.02;74.37;99503.69;5025351;28;20395;-77
2021/12/09 04:06:01;;;;;;;65.80;34.03;;;;;;;1.96;74.19;99498.41;5021880;28;20038;-77
2021/12/09 04:08:26;;;;;;;65.13;33.90;;;;;;;1.98;74.44;99505.38;5024883;28;20045;-77
2021/12/09 04:10:52;;;;;;;67.75;34.78;;;;;;;1.99;74.40;99498.44;5022468;28;20048;-77
2021/12/09 04:13:18;;;;;;;64.30;32.60;;;;;;;1.98;74.04;99470.66;5024051;28;20038;-77
2021/12/09 04:15:44;;;;;;;69.97;37.65;;;;;;;1.92;74.37;99460.19;5023254;28;20067;-77
2021/12/09 04:18:10;;;;;;;63.35;34.90;;;;;;;1.88;74.34;99437.59;5023384;28;20034;-77
2021/12/09 04:20:36;;;;;;;64.63;34.05;;;;;;;1.90;74.38;99446.28;5026010;28;20103;-77
2021/12/09 04:23:03;;;;;;;68.30;35.75;;;;;;;1.89;74.35;99450.63;5028913;28;20034;-77
2021/12/09 04:25:29;;;;;;;63.05;32.78;;;;;;;1.90;74.06;99460.16;5027238;28;20049;-77
2021/12/09 04:27:55;;;;;;;66.93;34.10;;;;;;;1.95;73.92;99460.22;5023838;28;20123;-77
2021/12/09 04:30:22;;;;;;;66.53;32.97;;;;;;;1.97;74.36;99464.59;5024128;28;20631;-77
2021/12/09 04:32:50;;;;;;;69.80;35.15;;;;;;;1.95;73.93;99466.31;5029064;28;20029;-77
2021/12/09 04:35:16;;;;;;;65.63;34.13;;;;;;;1.93;73.82;99472.34;5020773;28;20042;-77
2021/12/09 04:37:42;;;;;;;70.80;39.00;;;;;;;1.96;74.01;99487.97;5023229;28;20068;-77
2021/12/09 04:40:09;;;;;;;70.70;36.08;;;;;;;1.92;74.39;99502.69;5020152;28;20034;-77
2021/12/09 04:42:35;;;;;;;68.43;34.90;;;;;;;1.93;74.57;99516.56;5024033;28;20043;-76
2021/12/09 04:45:01;;;;;;;73.40;37.85;;;;;;;1.96;74.20;99503.59;5019564;28;20038;-77
2021/12/09 04:47:26;;;;;;;66.35;34.63;;;;;;;2.00;74.13;99491.53;5027834;28;20476;-79
2021/12/09 04:49:51;;;;;;;69.65;35.45;;;;;;;1.97;73.85;99493.22;5020953;28;20488;-77
2021/12/09 04:52:17;;;;;;;70.45;36.50;;;;;;;1.97;73.85;99501.03;5022849;28;20033;-77
2021/12/09 04:54:42;;;;;;;69.75;36.80;;;;;;;1.97;73.91;99494.97;5022332;28;20122;-77
2021/12/09 04:57:10;;;;;;;75.70;36.15;;;;;;;2.02;73.96;99490.69;5021915;28;20038;-77
2021/12/09 04:59:36;;;;;;;72.47;37.00;;;;;;;1.97;74.11;99484.53;5021548;28;20360;-77
2021/12/09 05:02:02;;;;;;;73.75;36.67;;;;;;;1.96;73.61;99487.97;5021383;28;20040;-77
2021/12/09 05:04:28;;;;;;;71.35;37.50;;;;;;;1.96;73.72;99494.09;5026921;28;20456;-77
2021/12/09 05:06:54;;;;;;;74.70;37.75;;;;;;;1.98;73.98;99504.50;5029760;28;20048;-78
2021/12/09 05:09:19;;;;;;;70.82;36.13;;;;;;;1.98;73.53;99504.50;5026726;28;20401;-77
2021/12/09 05:14:12;;;;;;;75.03;37.95;;;;;;;2.02;73.77;99515.81;5022168;28;20038;-77
2021/12/09 05:16:37;;;;;;;73.70;36.22;;;;;;;1.99;73.90;99514.03;5026217;28;20430;-78
2021/12/09 05:19:03;;;;;;;73.35;38.03;;;;;;;1.98;73.66;99513.16;5026119;28;20034;-77
2021/12/09 05:21:36;;;;;;;73.47;38.97;;;;;;;1.98;73.53;99501.91;5023995;28;20046;-78
2021/12/09 05:24:13;;;;;;;73.57;37.97;;;;;;;1.95;73.46;99505.34;5022913;28;20084;-77
2021/12/09 05:26:46;;;;;;;92.68;46.80;;;;;;;1.99;73.85;99511.44;5025321;28;20045;-77
2021/12/09 05:29:13;;;;;;;79.03;40.67;;;;;;;2.00;73.73;99500.19;5036154;28;20066;-77
2021/12/09 05:34:24;;;;;;;70.07;37.65;;;;;;;1.94;74.07;99498.41;5019975;28;20049;-77
2021/12/09 05:36:49;;;;;;;73.18;37.15;;;;;;;1.93;73.82;99498.38;5023835;28;20064;-77
2021/12/09 05:39:16;;;;;;;80.47;40.08;;;;;;;1.89;74.05;99501.81;5029361;28;20066;-77
2021/12/09 05:41:42;;;;;;;77.35;38.95;;;;;;;1.86;73.96;99505.25;5028196;28;20174;-77
2021/12/09 05:44:09;;;;;;;79.35;39.78;;;;;;;1.90;73.81;99503.53;5024775;28;20030;-78
2021/12/09 05:46:37;;;;;;;76.07;38.33;;;;;;;1.88;74.08;99495.69;5031861;28;20037;-78
2021/12/09 05:49:03;;;;;;;79.63;39.42;;;;;;;1.88;73.93;99511.31;5030436;28;20033;-77
2021/12/09 05:51:29;;;;;;;83.18;41.30;;;;;;;1.91;73.71;99515.69;5029036;28;20045;-77
2021/12/09 05:53:55;;;;;;;74.72;37.45;;;;;;;1.91;73.95;99515.69;5026433;28;20030;-77
2021/12/09 05:56:22;;;;;;;85.93;41.15;;;;;;;1.90;73.84;99516.53;5029023;28;20439;-76
2021/12/09 05:58:47;;;;;;;77.38;39.22;;;;;;;1.90;73.39;99504.41;5025119;28;20045;-77
2021/12/09 06:03:41;;;;;;;83.30;42.67;;;;;;;1.89;73.64;99488.78;5005653;28;20042;-77
2021/12/09 06:06:07;;;;;;;76.80;37.42;;;;;;;1.86;73.50;99483.53;5010438;28;20037;-77
2021/12/09 06:08:35;;;;;;;75.25;39.33;;;;;;;1.85;73.58;99494.78;5004388;28;20042;-77
2021/12/09 06:11:00;;;;;;;76.35;38.03;;;;;;;1.83;73.92;99502.56;5007275;28;20065;-77
2021/12/09 06:13:29;;;;;;;76.18;38.50;;;;;;;1.80;73.48;99505.13;5004556;28;20027;-77
2021/12/09 06:15:55;;;;;;;74.22;37.13;;;;;;;1.77;73.92;99502.50;5007057;28;20046;-76
2021/12/09 06:18:20;;;;;;;84.95;39.67;;;;;;;1.74;73.94;99503.34;5004808;28;20041;-77
2021/12/09 06:20:45;;;;;;;78.60;38.15;;;;;;;1.70;74.16;99501.56;5006353;28;20081;-77
2021/12/09 06:23:11;;;;;;;74.57;38.97;;;;;;;1.68;74.33;99507.59;5003703;28;20046;-76
2021/12/09 06:25:36;;;;;;;75.60;37.97;;;;;;;1.66;74.16;99506.72;5004602;28;20087;-77
2021/12/09 06:28:02;;;;;;;78.57;38.75;;;;;;;1.63;74.81;99517.94;5010095;28;20034;-77
2021/12/09 06:30:27;;;;;;;80.78;39.78;;;;;;;1.65;74.31;99507.53;5012633;28;20050;-77
2021/12/09 06:32:53;;;;;;;75.80;39.15;;;;;;;1.64;74.65;99485.00;5011514;28;20040;-77
2021/12/09 06:35:18;;;;;;;87.20;38.90;;;;;;;1.63;74.46;99499.72;5009061;28;20416;-77
2021/12/09 06:37:45;;;;;;;82.97;42.05;;;;;;;1.64;74.71;99516.22;5009550;28;20524;-77
2021/12/09 06:40:17;;;;;;;109.95;50.25;;;;;;;1.70;74.98;99511.97;5003723;28;20484;-77
2021/12/09 06:42:43;;;;;;;94.53;45.53;;;;;;;1.74;75.33;99516.34;5003581;28;20045;-77
2021/12/09 06:45:11;;;;;;;81.80;40.17;;;;;;;1.72;74.59;99535.38;5006826;28;20026;-77
2021/12/09 06:47:37;;;;;;;83.05;41.42;;;;;;;1.73;74.70;99524.16;5003646;28;20480;-77
2021/12/09 06:50:04;;;;;;;88.28;40.33;;;;;;;1.71;74.58;99534.53;5006365;28;20040;-77
2021/12/09 06:52:29;;;;;;;88.00;40.65;;;;;;;1.66;74.82;99551.78;4997455;28;20484;-76
2021/12/09 06:54:55;;;;;;;84.65;40.47;;;;;;;1.60;74.81;99569.91;5004253;28;20069;-77
2021/12/09 06:57:20;;;;;;;84.15;41.30;;;;;;;1.54;74.90;99560.28;5004832;28;20030;-77
2021/12/09 06:59:45;;;;;;;83.32;40.10;;;;;;;1.51;75.28;99567.16;5007414;28;20093;-77
2021/12/09 07:02:10;;;;;;;84.22;40.05;;;;;;;1.59;75.35;99578.56;5004989;28;20097;-77
2021/12/09 07:04:36;;;;;;;84.60;40.30;;;;;;;1.57;75.21;99575.06;5005406;28;20034;-77
2021/12/09 07:07:01;;;;;;;86.65;42.05;;;;;;;1.64;75.20;99586.44;5001625;28;20096;-77
2021/12/09 07:09:29;;;;;;;86.00;43.55;;;;;;;1.67;75.22;99589.94;5002758;28;20030;-77
2021/12/09 07:11:55;;;;;;;88.43;41.60;;;;;;;1.72;74.82;99572.69;5008704;28;20057;-77
2021/12/09 07:14:21;;;;;;;79.05;39.15;;;;;;;1.74;75.03;99557.97;5002469;28;20113;-77
2021/12/09 07:16:46;;;;;;;83.75;42.33;;;;;;;1.74;74.92;99560.56;5006585;28;20032;-77
2021/12/09 07:19:12;;;;;;;88.03;41.88;;;;;;;1.77;74.88;99590.09;5003120;28;20381;-77
2021/12/09 07:21:37;;;;;;;85.07;40.40;;;;;;;1.76;74.45;99581.41;5006044;28;20201;-77
2021/12/09 07:24:03;;;;;;;89.03;41.85;;;;;;;1.72;74.76;99583.06;5003640;28;20034;-77
2021/12/09 07:26:30;;;;;;;93.40;44.28;;;;;;;1.71;74.82;99576.13;5005092;28;20525;-77
2021/12/09 07:28:56;;;;;;;88.82;43.70;;;;;;;1.77;74.85;99574.47;5007209;28;20029;-77
2021/12/09 07:31:24;;;;;;;86.63;41.17;;;;;;;1.80;74.73;99575.38;5004524;28;20189;-77
2021/12/09 07:33:50;;;;;;;81.60;40.22;;;;;;;1.84;74.89;99571.13;5006499;28;20034;-77
2021/12/09 07:36:16;;;;;;;87.95;41.42;;;;;;;1.86;74.32;99566.78;5003883;28;20089;-77
2021/12/09 07:38:41;;;;;;;85.32;39.95;;;;;;;1.86;74.47;99557.28;5003610;28;20034;-77
2021/12/09 07:41:07;;;;;;;87.68;41.30;;;;;;;1.88;74.78;99558.16;5003310;28;20038;-77
2021/12/09 07:43:33;;;;;;;86.20;41.83;;;;;;;1.85;74.49;99547.69;5005170;28;20151;-76
2021/12/09 07:45:59;;;;;;;77.15;39.72;;;;;;;1.82;74.77;99542.47;5002482;28;20077;-76
2021/12/09 07:48:25;;;;;;;90.55;41.50;;;;;;;1.85;74.36;99571.13;5005927;28;20037;-77
2021/12/09 07:50:50;;;;;;;78.05;39.08;;;;;;;1.89;74.35;99578.13;5002703;28;20037;-77
2021/12/09 07:53:17;;;;;;;87.38;41.88;;;;;;;1.90;73.96;99566.84;5008628;28;20053;-77
2021/12/09 07:55:44;;;;;;;91.95;41.72;;;;;;;1.89;73.95;99548.63;5012130;28;20042;-77
2021/12/09 07:58:10;;;;;;;85.97;42.72;;;;;;;1.88;74.58;99541.66;5002714;28;20034;-77
2021/12/09 08:00:35;;;;;;;87.60;43.55;;;;;;;1.91;74.12;99555.59;5005120;28;20045;-77
2021/12/09 08:03:02;;;;;;;86.57;42.30;;;;;;;1.94;73.84;99565.19;5003618;28;20123;-77
2021/12/09 08:05:30;;;;;;;90.38;43.28;;;;;;;1.96;74.12;99566.06;5002903;28;20399;-77
2021/12/09 08:07:55;;;;;;;83.43;39.75;;;;;;;1.98;73.95;99566.94;5006592;28;20042;-77
2021/12/09 08:10:22;;;;;;;86.18;39.85;;;;;;;2.01;73.70;99574.78;5006566;28;20041;-77
2021/12/09 08:12:48;;;;;;;86.65;40.92;;;;;;;2.06;73.52;99578.34;5004643;28;20077;-77
2021/12/09 08:15:15;;;;;;;88.38;40.35;;;;;;;2.06;73.60;99575.72;5002992;28;20496;-77
2021/12/09 08:20:07;;;;;;;86.00;41.67;;;;;;;2.07;73.87;99567.09;5002542;28;20045;-77
2021/12/09 08:22:33;;;;;;;86.95;43.42;;;;;;;2.09;73.90;99562.75;5005047;28;20041;-77
2021/12/09 08:24:59;;;;;;;97.05;44.38;;;;;;;2.07;73.56;99574.00;5000691;28;20046;-77
2021/12/09 08:27:25;;;;;;;86.45;42.08;;;;;;;2.12;73.38;99565.41;5005142;28;20039;-77
2021/12/09 08:29:51;;;;;;;96.65;45.35;;;;;;;2.13;73.47;99574.09;5004477;28;20045;-77
2021/12/09 08:32:16;;;;;;;94.28;43.53;;;;;;;2.12;73.30;99568.03;5011460;28;20034;-77
2021/12/09 08:34:42;;;;;;;92.93;45.00;;;;;;;2.18;73.47;99551.59;5007332;28;20545;-77
2021/12/09 08:37:08;;;;;;;81.97;40.63;;;;;;;2.25;73.07;99553.41;5006444;28;20168;-77
2021/12/09 08:39:33;;;;;;;95.80;44.95;;;;;;;2.30;73.29;99566.47;5007858;28;20038;-77
2021/12/09 08:41:58;;;;;;;92.32;45.53;;;;;;;2.34;72.81;99573.47;5003447;28;20037;-77
2021/12/09 08:44:24;;;;;;;88.78;42.78;;;;;;;2.36;72.96;99576.97;5004672;28;20038;-77
2021/12/09 08:46:50;;;;;;;98.90;45.38;;;;;;;2.37;73.00;99578.72;5009845;28;20030;-77
2021/12/09 08:49:15;;;;;;;114.65;52.42;;;;;;;2.39;73.41;99574.41;5004085;28;20058;-77
2021/12/09 08:51:41;;;;;;;128.88;57.83;;;;;;;2.45;74.02;99574.47;5004771;28;20038;-77
2021/12/09 08:54:07;;;;;;;101.45;50.35;;;;;;;2.49;73.26;99583.19;5001360;28;20034;-77
2021/12/09 08:56:34;;;;;;;102.63;49.40;;;;;;;2.46;72.94;99578.81;5005048;28;20042;-77
2021/12/09 08:59:02;;;;;;;95.13;45.38;;;;;;;2.46;72.44;99584.00;5001973;28;20030;-77
2021/12/09 09:01:28;;;;;;;101.10;46.33;;;;;;;2.49;72.58;99588.38;5011570;28;20117;-76
2021/12/09 09:03:53;;;;;;;96.10;47.33;;;;;;;2.53;72.57;99582.38;5002033;28;20133;-77
2021/12/09 09:06:19;;;;;;;93.63;46.30;;;;;;;2.56;72.57;99590.22;5004952;28;20045;-77
2021/12/09 09:08:44;;;;;;;100.13;47.85;;;;;;;2.56;72.34;99593.69;5007661;28;20088;-77
2021/12/09 09:11:10;;;;;;;95.35;46.28;;;;;;;2.55;71.99;99583.25;5009089;28;20040;-77
2021/12/09 09:13:35;;;;;;;93.18;46.03;;;;;;;2.60;71.88;99578.97;5009601;28;20076;-77
2021/12/09 09:16:01;;;;;;;98.60;48.13;;;;;;;2.67;71.75;99577.28;5007010;28;20038;-77
2021/12/09 09:18:26;;;;;;;94.45;43.20;;;;;;;2.67;71.84;99577.28;5007794;28;20133;-77
2021/12/09 09:20:51;;;;;;;84.70;41.33;;;;;;;2.69;72.10;99583.41;5005601;28;20045;-77
2021/12/09 09:23:20;;;;;;;100.32;47.15;;;;;;;2.72;71.44;99586.91;5007771;28;20061;-77
2021/12/09 09:25:46;;;;;;;93.10;43.00;;;;;;;2.71;71.68;99579.09;5008424;28;20052;-77
2021/12/09 09:28:12;;;;;;;98.68;48.63;;;;;;;2.70;71.86;99585.13;5004905;28;20030;-77
2021/12/09 09:30:43;;;;;;;98.38;47.15;;;;;;;2.77;71.78;99592.16;5007852;28;20044;-77
2021/12/09 09:33:14;;;;;;;97.95;45.42;;;;;;;2.79;71.60;99577.44;5004773;28;20792;-77
2021/12/09 09:35:42;;;;;;;91.72;44.38;;;;;;;2.82;71.18;99591.34;5005659;28;20034;-77
2021/12/09 09:38:08;;;;;;;91.30;43.33;;;;;;;2.88;71.41;99603.56;5009056;28;20487;-77
2021/12/09 09:40:49;;;;;;;93.72;46.40;;;;;;;2.90;71.24;99599.25;5007209;28;20080;-77
2021/12/09 09:43:27;;;;;;;83.40;41.10;;;;;;;2.82;70.85;99603.50;5003415;28;20050;-77
2021/12/09 09:45:55;;;;;;;86.50;42.60;;;;;;;2.73;71.69;99619.06;5002554;28;20041;-77
2021/12/09 09:48:20;;;;;;;88.10;43.60;;;;;;;2.66;71.32;99601.63;5008354;28;20510;-77
2021/12/09 09:50:46;;;;;;;88.13;43.80;;;;;;;2.66;71.28;99601.63;5004370;28;20089;-77
2021/12/09 09:53:12;;;;;;;90.65;42.20;;;;;;;2.63;71.51;99602.44;5001359;28;20034;-77
2021/12/09 09:55:38;;;;;;;89.68;42.63;;;;;;;2.61;71.72;99593.75;5002443;28;20042;-77
2021/12/09 09:58:04;;;;;;;93.57;43.30;;;;;;;2.61;71.83;99592.00;5002676;28;20042;-77
2021/12/09 10:00:29;;;;;;;100.03;47.10;;;;;;;2.66;71.94;99599.88;5003242;28;20030;-77
2021/12/09 10:02:55;;;;;;;86.18;42.90;;;;;;;2.78;71.82;99597.41;5006763;28;20405;-77
2021/12/09 10:05:28;;;;;;;88.32;42.95;;;;;;;2.88;71.51;99582.72;5004094;28;20433;-77
2021/12/09 10:07:55;;;;;;;88.68;44.10;;;;;;;2.88;71.16;99595.75;5020465;28;20037;-77
2021/12/09 10:10:20;;;;;;;86.78;42.70;;;;;;;2.93;71.68;99601.88;5005408;28;20038;-77
2021/12/09 10:13:05;;;;;;;81.97;43.03;;;;;;;3.02;71.14;99596.78;5004962;28;20030;-77
2021/12/09 10:15:46;;;;;;;87.63;43.50;;;;;;;3.09;71.01;99592.47;5003036;28;20034;-77
2021/12/09 10:18:14;;;;;;;86.72;41.50;;;;;;;3.16;71.24;99588.19;5001653;28;20042;-77
2021/12/09 10:20:44;;;;;;;86.03;42.67;;;;;;;3.23;70.85;99575.22;5003717;28;20045;-77
2021/12/09 10:23:34;;;;;;;95.38;46.00;;;;;;;3.24;70.49;99566.53;5002506;28;20034;-77
2021/12/09 10:26:11;;;;;;;87.88;44.35;;;;;;;3.20;70.62;99574.34;5000720;28;20724;-77
2021/12/09 10:28:40;;;;;;;96.25;45.58;;;;;;;3.20;70.82;99569.13;5002321;28;20041;-77
2021/12/09 10:31:16;;;;;;;86.38;42.53;;;;;;;3.23;70.38;99579.56;5005990;28;20117;-77
2021/12/09 10:34:14;;;;;;;109.15;51.75;;;;;;;3.20;70.12;99571.72;5008052;28;20030;-77
2021/12/09 10:36:51;;;;;;;96.47;47.20;;;;;;;3.20;70.73;99563.91;5006551;28;20038;-77
2021/12/09 10:39:24;;;;;;;84.88;43.08;;;;;;;3.26;70.52;99561.34;5003607;28;20069;-77
2021/12/09 10:41:50;;;;;;;92.40;44.45;;;;;;;3.25;70.58;99549.19;5008147;28;20030;-77
2021/12/09 10:44:20;;;;;;;86.53;43.72;;;;;;;3.23;70.48;99566.53;5001754;28;20034;-77
2021/12/09 10:46:56;;;;;;;96.13;45.67;;;;;;;3.24;70.83;99576.09;5008169;28;20038;-77
2021/12/09 10:49:23;;;;;;;92.53;44.13;;;;;;;3.13;70.16;99573.41;5009613;28;20033;-77
2021/12/09 10:51:57;;;;;;;85.45;42.33;;;;;;;3.11;70.75;99554.25;5007923;28;20045;-77
2021/12/09 10:54:34;;;;;;;89.90;42.90;;;;;;;3.27;70.40;99560.47;5010255;28;20029;-77
2021/12/09 10:57:23;;;;;;;94.68;46.92;;;;;;;3.30;70.54;99555.25;5011122;28;20502;-77
2021/12/09 10:59:48;;;;;;;100.20;49.40;;;;;;;3.29;70.76;99548.31;5004855;28;20034;-77
2021/12/09 11:02:13;;;;;;;88.22;43.75;;;;;;;3.21;70.85;99539.56;5008714;28;20034;-77
2021/12/09 11:04:39;;;;;;;90.90;44.45;;;;;;;3.20;71.02;99543.06;5007281;28;20042;-77
2021/12/09 11:07:27;;;;;;;88.88;45.67;;;;;;;3.21;70.94;99543.03;5006335;28;20042;-77
2021/12/09 11:10:19;;;;;;;90.75;44.92;;;;;;;3.27;70.63;99545.72;5005460;28;20034;-78
2021/12/09 11:12:57;;;;;;;97.28;47.97;;;;;;;3.31;70.42;99536.16;5007013;28;20049;-77
2021/12/09 11:15:44;;;;;;;92.20;45.47;;;;;;;3.33;70.29;99539.66;5004928;28;20049;-77
2021/12/09 11:18:31;;;;;;;91.32;47.60;;;;;;;3.30;70.71;99529.19;5006664;28;20038;-78
2021/12/09 11:20:58;;;;;;;89.57;43.38;;;;;;;3.34;70.80;99538.78;5022465;28;20038;-77
2021/12/09 11:23:32;;;;;;;91.10;46.40;;;;;;;3.39;70.57;99542.31;5009863;28;20077;-78
2021/12/09 11:26:17;;;;;;;81.15;43.17;;;;;;;3.45;71.24;99524.06;5007493;28;20489;-77
2021/12/09 11:29:05;;;;;;;91.57;45.90;;;;;;;3.54;71.04;99538.03;5015837;28;20083;-77
2021/12/09 11:31:38;;;;;;;99.57;48.08;;;;;;;3.51;70.63;99534.56;5010313;28;20056;-78
2021/12/09 11:34:11;;;;;;;84.68;44.35;;;;;;;3.61;70.60;99532.88;5007454;28;20568;-78
2021/12/09 11:36:47;;;;;;;;;;;;;;;3.47;70.04;99521.50;5005899;28;20046;-77